Time;durP1;ratioP1;P1;durP2;ratioP2;P2;SDS_P1;SDS_P2;PMS_P1;PMS_P2;Temp;Humidity;BMP_temperature;BMP_pressure;BME280_temperature;BME280_humidity;BME280_pressure;Samples;Min_cycle;Max_cycle;Signal;HPM_P1;HPM_P2
2022/05/03 00:00:07;;;;;;;0.30;0.30;;;8.90;99.90;;;;;;5053259;28;20261;-70
2022/05/03 00:02:42;;;;;;;0.30;0.30;;;8.80;99.90;;;;;;5053262;28;20227;-70
2022/05/03 00:05:11;;;;;;;0.50;0.50;;;8.80;99.90;;;;;;5053373;28;20203;-70
2022/05/03 00:07:46;;;;;;;0.30;0.30;;;8.80;99.90;;;;;;5053117;28;20213;-70
2022/05/03 00:10:16;;;;;;;0.30;0.30;;;8.80;99.90;;;;;;5053105;28;20177;-70
2022/05/03 00:12:53;;;;;;;0.30;0.30;;;8.70;99.90;;;;;;5053103;28;20174;-70
2022/05/03 00:15:21;;;;;;;0.40;0.40;;;8.70;99.90;;;;;;5053376;28;20196;-70
2022/05/03 00:17:48;;;;;;;0.30;0.30;;;8.70;99.90;;;;;;5053223;28;20181;-70
2022/05/03 00:20:14;;;;;;;0.98;0.95;;;8.60;99.90;;;;;;5052984;28;20212;-70
2022/05/03 00:22:40;;;;;;;0.40;0.40;;;8.60;99.90;;;;;;5052935;28;20204;-70
2022/05/03 00:25:06;;;;;;;0.30;0.30;;;8.60;99.90;;;;;;5053166;28;20248;-70
2022/05/03 00:27:33;;;;;;;0.30;0.30;;;8.60;99.90;;;;;;5053113;28;20193;-70
2022/05/03 00:29:59;;;;;;;0.30;0.30;;;8.50;99.90;;;;;;5052684;28;20173;-70
2022/05/03 00:32:26;;;;;;;0.30;0.30;;;8.60;99.90;;;;;;5052974;28;20169;-70
2022/05/03 00:34:53;;;;;;;0.30;0.30;;;8.50;99.90;;;;;;5053104;28;20232;-70
2022/05/03 00:37:18;;;;;;;0.30;0.30;;;8.50;99.90;;;;;;5052883;28;20235;-70
2022/05/03 00:39:45;;;;;;;0.40;0.40;;;8.50;99.90;;;;;;5052728;28;20181;-70
2022/05/03 00:42:40;;;;;;;0.43;0.43;;;8.50;99.90;;;;;;5052744;28;20200;-70
2022/05/03 00:45:25;;;;;;;0.30;0.30;;;8.50;99.90;;;;;;5053010;28;20672;-70
2022/05/03 00:47:54;;;;;;;0.30;0.30;;;8.50;99.90;;;;;;5053030;28;20165;-70
2022/05/03 00:50:32;;;;;;;0.30;0.30;;;8.50;99.90;;;;;;5052522;28;20203;-70
2022/05/03 00:53:03;;;;;;;0.30;0.30;;;8.50;99.90;;;;;;5052756;28;20177;-70
2022/05/03 00:56:14;;;;;;;0.43;0.43;;;8.50;99.90;;;;;;5052979;28;20533;-70
2022/05/03 00:58:42;;;;;;;0.40;0.40;;;8.50;99.90;;;;;;5052928;28;20165;-70
2022/05/03 01:01:34;;;;;;;0.30;0.30;;;8.50;99.90;;;;;;5055898;28;20215;-70
2022/05/03 01:04:19;;;;;;;0.30;0.30;;;8.40;99.90;;;;;;5056155;28;20168;-70
2022/05/03 01:06:52;;;;;;;0.40;0.40;;;8.40;99.90;;;;;;5056444;28;20257;-70
2022/05/03 01:09:38;;;;;;;0.30;0.30;;;8.40;99.90;;;;;;5056450;28;20256;-70
2022/05/03 01:12:24;;;;;;;0.40;0.40;;;8.40;99.90;;;;;;5054151;28;20224;-70
2022/05/03 01:15:05;;;;;;;0.30;0.30;;;8.30;99.90;;;;;;5056281;28;20173;-70
2022/05/03 01:17:45;;;;;;;0.30;0.30;;;8.30;99.90;;;;;;5056128;28;20546;-70
2022/05/03 01:20:16;;;;;;;0.30;0.30;;;8.40;99.90;;;;;;5055960;28;20187;-70
2022/05/03 01:23:09;;;;;;;0.30;0.30;;;8.30;99.90;;;;;;5055905;28;20345;-70
2022/05/03 01:25:45;;;;;;;0.38;0.38;;;8.30;99.90;;;;;;5056199;28;20207;-70
2022/05/03 01:28:28;;;;;;;0.40;0.40;;;8.40;99.90;;;;;;5055906;28;20171;-70
2022/05/03 01:31:09;;;;;;;0.32;0.32;;;8.30;99.90;;;;;;5055654;28;20197;-70
2022/05/03 01:33:41;;;;;;;0.30;0.30;;;8.40;99.90;;;;;;5055936;28;20212;-70
2022/05/03 01:36:08;;;;;;;0.30;0.30;;;8.40;99.90;;;;;;5055911;28;20180;-70
2022/05/03 01:38:46;;;;;;;0.30;0.30;;;8.40;99.90;;;;;;5055721;28;20256;-70
2022/05/03 01:41:14;;;;;;;0.30;0.30;;;8.40;99.90;;;;;;5055397;28;20211;-70
2022/05/03 01:44:02;;;;;;;0.30;0.30;;;8.50;99.90;;;;;;5055453;28;20172;-70
2022/05/03 01:46:31;;;;;;;0.30;0.30;;;8.40;99.90;;;;;;5055533;28;20533;-70
2022/05/03 01:52:04;;;;;;;0.30;0.30;;;8.50;99.90;;;;;;5055345;28;20688;-70
2022/05/03 01:54:49;;;;;;;0.30;0.30;;;8.50;99.90;;;;;;5055607;28;20178;-70
2022/05/03 01:57:39;;;;;;;0.30;0.30;;;8.50;99.90;;;;;;5055550;28;20257;-70
2022/05/03 02:00:06;;;;;;;0.98;0.98;;;8.50;99.90;;;;;;5053939;28;20181;-70
2022/05/03 02:02:43;;;;;;;0.30;0.30;;;8.50;99.90;;;;;;5055171;28;20181;-70
2022/05/03 02:05:26;;;;;;;0.50;0.50;;;8.50;99.90;;;;;;5055044;28;20664;-70
2022/05/03 02:07:58;;;;;;;0.30;0.30;;;8.50;99.90;;;;;;5055361;28;20173;-70
2022/05/03 02:10:56;;;;;;;0.30;0.30;;;8.50;99.90;;;;;;5054848;28;20208;-70
2022/05/03 02:17:05;;;;;;;0.73;0.73;;;8.40;99.90;;;;;;5055221;28;20191;-70
2022/05/03 02:23:17;;;;;;;0.40;0.40;;;8.40;99.90;;;;;;5013401;28;20285;-70
2022/05/03 02:25:57;;;;;;;0.40;0.40;;;8.30;99.90;;;;;;5055183;28;20271;-70
2022/05/03 02:28:38;;;;;;;0.30;0.30;;;8.30;99.90;;;;;;5054859;28;20172;-70
2022/05/03 02:31:05;;;;;;;0.65;0.65;;;8.20;99.90;;;;;;5054448;28;20217;-70
2022/05/03 02:33:42;;;;;;;0.57;0.57;;;8.20;99.90;;;;;;5054597;28;20208;-70
2022/05/03 02:36:14;;;;;;;0.40;0.40;;;8.10;99.90;;;;;;5054829;28;20184;-71
2022/05/03 02:38:52;;;;;;;0.32;0.32;;;8.10;99.90;;;;;;5054622;28;20172;-70
2022/05/03 02:41:20;;;;;;;0.68;0.68;;;8.10;99.90;;;;;;5054187;28;20188;-70
2022/05/03 02:43:47;;;;;;;0.30;0.30;;;8.10;99.90;;;;;;5054573;28;20226;-71
2022/05/03 02:46:31;;;;;;;0.30;0.30;;;8.10;99.90;;;;;;5054422;28;20209;-70
2022/05/03 02:49:04;;;;;;;0.30;0.30;;;8.10;99.90;;;;;;5054480;28;20168;-70
2022/05/03 02:51:59;;;;;;;0.30;0.30;;;8.10;99.90;;;;;;5054155;28;20186;-70
2022/05/03 02:54:32;;;;;;;0.30;0.30;;;8.10;99.90;;;;;;5032889;28;20196;-70
2022/05/03 02:57:28;;;;;;;0.70;0.70;;;8.00;99.90;;;;;;5054196;28;20271;-70
2022/05/03 03:02:59;;;;;;;1.80;1.67;;;8.00;99.90;;;;;;5054327;28;20702;-70
2022/05/03 03:05:27;;;;;;;0.50;0.50;;;8.00;99.90;;;;;;5053963;28;20200;-70
2022/05/03 03:07:57;;;;;;;0.30;0.30;;;8.00;99.90;;;;;;5054070;28;20230;-70
2022/05/03 03:10:38;;;;;;;0.30;0.30;;;8.00;99.90;;;;;;5053870;28;20239;-70
2022/05/03 03:13:20;;;;;;;0.30;0.30;;;8.00;99.90;;;;;;5053924;28;20249;-70
2022/05/03 03:15:47;;;;;;;0.40;0.40;;;8.00;99.90;;;;;;5054100;28;20211;-71
2022/05/03 03:18:14;;;;;;;0.40;0.40;;;8.00;99.90;;;;;;5054009;28;20189;-70
2022/05/03 03:20:53;;;;;;;0.82;0.82;;;7.90;99.90;;;;;;5053532;28;20189;-70
2022/05/03 03:23:24;;;;;;;0.40;0.40;;;7.90;99.90;;;;;;5053906;28;20172;-70
2022/05/03 03:25:50;;;;;;;0.30;0.30;;;7.80;99.90;;;;;;5053502;28;20212;-70
2022/05/03 03:28:19;;;;;;;0.30;0.30;;;7.80;99.90;;;;;;5053857;28;20185;-70
2022/05/03 03:30:46;;;;;;;0.30;0.30;;;7.90;99.90;;;;;;5053567;28;20190;-70
2022/05/03 03:33:13;;;;;;;0.65;0.65;;;7.90;99.90;;;;;;5054039;28;20525;-70
2022/05/03 03:35:41;;;;;;;1.05;1.05;;;7.90;99.90;;;;;;5053689;28;20169;-70
2022/05/03 03:38:09;;;;;;;0.30;0.30;;;7.90;99.90;;;;;;5053760;28;20541;-70
2022/05/03 03:40:35;;;;;;;0.30;0.30;;;7.90;99.90;;;;;;5052145;28;20192;-70
2022/05/03 03:43:00;;;;;;;0.30;0.30;;;7.90;99.90;;;;;;5053443;28;20180;-70
2022/05/03 03:45:27;;;;;;;0.30;0.30;;;7.90;99.90;;;;;;5053438;28;20604;-70
2022/05/03 03:47:54;;;;;;;0.40;0.40;;;7.80;99.90;;;;;;5051121;28;20670;-72
2022/05/03 03:50:22;;;;;;;0.30;0.30;;;7.80;99.90;;;;;;5051630;28;20919;-72
2022/05/03 03:52:48;;;;;;;0.82;0.82;;;8.30;99.90;;;;;;5054093;28;20166;-73
2022/05/03 03:55:14;;;;;;;0.30;0.30;;;9.10;99.90;;;;;;5053847;28;20174;-71
2022/05/03 03:57:40;;;;;;;0.40;0.40;;;9.90;99.90;;;;;;5053562;28;20497;-71
2022/05/03 04:00:11;;;;;;;0.30;0.30;;;10.50;99.90;;;;;;5053284;28;20173;-71
2022/05/03 04:02:41;;;;;;;0.30;0.30;;;10.70;98.80;;;;;;5053994;28;20245;-71
2022/05/03 04:05:15;;;;;;;0.30;0.30;;;10.30;96.60;;;;;;5053808;28;20193;-69
2022/05/03 04:07:41;;;;;;;0.32;0.32;;;9.90;97.30;;;;;;5053524;28;20174;-71
2022/05/03 04:10:07;;;;;;;0.40;0.40;;;9.50;97.80;;;;;;5053104;28;20166;-69
2022/05/03 04:12:33;;;;;;;0.30;0.30;;;9.20;98.60;;;;;;5053222;28;20244;-69
2022/05/03 04:14:59;;;;;;;0.30;0.30;;;9.00;99.20;;;;;;5052978;28;20901;-69
2022/05/03 04:17:24;;;;;;;0.38;0.38;;;8.80;99.80;;;;;;5050856;28;20919;-69
2022/05/03 04:19:50;;;;;;;0.30;0.30;;;8.60;99.90;;;;;;5052319;28;20185;-69
2022/05/03 04:22:48;;;;;;;0.30;0.30;;;8.50;99.90;;;;;;5053056;28;20213;-69
2022/05/03 04:25:15;;;;;;;0.40;0.40;;;8.30;99.90;;;;;;5030478;28;20472;-70
2022/05/03 04:27:40;;;;;;;0.50;0.50;;;8.30;99.90;;;;;;5053650;28;20201;-68
2022/05/03 04:30:07;;;;;;;0.30;0.30;;;8.30;99.90;;;;;;5053293;28;20208;-71
2022/05/03 04:32:33;;;;;;;0.30;0.30;;;8.30;99.90;;;;;;5052399;28;20184;-68
2022/05/03 04:34:59;;;;;;;0.30;0.30;;;8.30;99.90;;;;;;5054920;28;20544;-70
2022/05/03 04:37:26;;;;;;;0.30;0.30;;;8.30;99.90;;;;;;5057241;28;20165;-71
2022/05/03 04:39:52;;;;;;;0.93;0.93;;;8.30;99.90;;;;;;5057074;28;20182;-69
2022/05/03 04:42:17;;;;;;;0.30;0.30;;;8.30;99.90;;;;;;5057256;28;20707;-70
2022/05/03 04:44:43;;;;;;;0.57;0.57;;;8.30;99.90;;;;;;5057275;28;20458;-69
2022/05/03 04:47:08;;;;;;;0.40;0.40;;;8.30;99.90;;;;;;5056869;28;20219;-69
2022/05/03 04:49:35;;;;;;;0.30;0.30;;;8.30;99.90;;;;;;5056613;28;20219;-69
2022/05/03 04:52:01;;;;;;;0.30;0.30;;;8.30;99.90;;;;;;5056795;28;20185;-68
2022/05/03 04:54:26;;;;;;;0.30;0.30;;;8.20;99.90;;;;;;5056944;28;20184;-68
2022/05/03 04:57:02;;;;;;;0.40;0.40;;;8.40;99.90;;;;;;5057030;28;20911;-69
2022/05/03 04:59:28;;;;;;;0.30;0.30;;;8.50;99.90;;;;;;5057053;28;20260;-69
2022/05/03 05:01:54;;;;;;;0.30;0.30;;;8.80;99.90;;;;;;5056290;28;20283;-69
2022/05/03 05:04:20;;;;;;;0.30;0.30;;;9.30;99.90;;;;;;5056476;28;20447;-71
2022/05/03 05:06:45;;;;;;;1.30;1.25;;;9.70;99.90;;;;;;5056607;28;20224;-70
2022/05/03 05:09:11;;;;;;;0.30;0.30;;;10.10;99.90;;;;;;5056627;28;20635;-70
2022/05/03 05:11:37;;;;;;;0.30;0.30;;;10.40;99.70;;;;;;5056532;28;20186;-71
2022/05/03 05:14:02;;;;;;;0.30;0.30;;;10.70;99.00;;;;;;5056669;28;20212;-70
2022/05/03 05:16:28;;;;;;;0.30;0.30;;;11.10;98.90;;;;;;5056301;28;20167;-71
2022/05/03 05:18:54;;;;;;;0.30;0.30;;;11.50;98.40;;;;;;5056394;28;20167;-70
2022/05/03 05:21:20;;;;;;;0.50;0.50;;;11.70;97.50;;;;;;5055748;28;20235;-69
2022/05/03 05:23:45;;;;;;;0.30;0.30;;;12.00;97.10;;;;;;5053895;28;20166;-69
2022/05/03 05:26:11;;;;;;;0.30;0.30;;;12.30;96.30;;;;;;5055828;28;20513;-69
2022/05/03 05:28:37;;;;;;;0.30;0.30;;;12.70;95.70;;;;;;5056011;28;20243;-70
2022/05/03 05:31:03;;;;;;;0.30;0.30;;;13.30;94.50;;;;;;5055757;28;20926;-70
2022/05/03 05:33:29;;;;;;;0.67;0.67;;;14.00;92.70;;;;;;5055883;28;20168;-69
2022/05/03 05:35:54;;;;;;;1.53;1.53;;;14.40;91.30;;;;;;5055736;28;20283;-70
2022/05/03 05:38:20;;;;;;;0.40;0.40;;;14.90;90.60;;;;;;5056012;28;20197;-70
2022/05/03 05:40:47;;;;;;;0.30;0.30;;;15.30;89.30;;;;;;5055503;28;20200;-70
2022/05/03 05:43:14;;;;;;;0.97;0.97;;;15.60;88.10;;;;;;5055650;28;20261;-70
2022/05/03 05:45:40;;;;;;;0.30;0.30;;;15.80;86.40;;;;;;5055057;28;20460;-70
2022/05/03 05:48:06;;;;;;;0.40;0.40;;;16.20;85.10;;;;;;5055331;28;20485;-70
2022/05/03 05:50:32;;;;;;;0.50;0.50;;;16.50;85.00;;;;;;5055402;28;20503;-70
2022/05/03 05:55:45;;;;;;;0.30;0.30;;;17.90;81.20;;;;;;5055768;28;20193;-70
2022/05/03 05:58:11;;;;;;;0.50;0.50;;;19.10;75.70;;;;;;5055826;28;20827;-71
2022/05/03 06:00:36;;;;;;;0.40;0.40;;;20.20;71.30;;;;;;5055035;28;20431;-70
2022/05/03 06:03:03;;;;;;;0.30;0.30;;;21.30;66.40;;;;;;5052665;28;20409;-70
2022/05/03 06:05:30;;;;;;;0.30;0.30;;;22.30;62.20;;;;;;5055407;28;20209;-71
2022/05/03 06:07:56;;;;;;;0.30;0.30;;;23.30;59.00;;;;;;5055851;28;20848;-71
2022/05/03 06:10:23;;;;;;;0.30;0.30;;;24.20;56.50;;;;;;5052417;28;20436;-71
2022/05/03 06:12:49;;;;;;;0.50;0.50;;;25.00;53.80;;;;;;5055264;28;20257;-71
2022/05/03 06:15:16;;;;;;;0.70;0.70;;;25.60;51.70;;;;;;5055283;28;20496;-70
2022/05/03 06:17:42;;;;;;;0.60;0.60;;;25.80;49.70;;;;;;5054711;28;20563;-70
2022/05/03 06:20:10;;;;;;;0.30;0.30;;;25.40;49.00;;;;;;5052228;28;20821;-70
2022/05/03 06:22:39;;;;;;;0.30;0.30;;;25.20;50.20;;;;;;5054939;28;20436;-70
2022/05/03 06:25:06;;;;;;;0.80;0.50;;;25.40;50.00;;;;;;5053160;28;20456;-70
2022/05/03 06:27:32;;;;;;;0.30;0.30;;;25.90;48.50;;;;;;5051678;28;20779;-70
2022/05/03 06:29:57;;;;;;;0.30;0.30;;;26.20;48.00;;;;;;5054306;28;20412;-70
2022/05/03 06:32:23;;;;;;;0.70;0.70;;;26.30;48.10;;;;;;5054300;28;20212;-70
2022/05/03 06:34:48;;;;;;;0.40;0.40;;;26.20;48.20;;;;;;5054832;28;20200;-70
2022/05/03 06:37:17;;;;;;;0.30;0.30;;;25.90;47.40;;;;;;5054692;28;20198;-70
2022/05/03 06:39:43;;;;;;;0.50;0.50;;;25.80;47.90;;;;;;5054732;28;20212;-70
2022/05/03 06:42:09;;;;;;;0.30;0.30;;;26.00;48.00;;;;;;5054486;28;20429;-70
2022/05/03 06:44:35;;;;;;;0.40;0.40;;;26.20;47.60;;;;;;5054629;28;20204;-70
2022/05/03 06:47:01;;;;;;;0.33;0.33;;;26.30;47.30;;;;;;5054798;28;20409;-70
2022/05/03 06:49:27;;;;;;;0.40;0.40;;;26.10;48.20;;;;;;5054636;28;20174;-70
2022/05/03 06:51:52;;;;;;;0.33;0.33;;;25.90;47.50;;;;;;5054084;28;20490;-70
2022/05/03 06:54:18;;;;;;;0.37;0.37;;;26.00;47.60;;;;;;5053841;28;20538;-70
2022/05/03 06:56:44;;;;;;;0.30;0.30;;;26.10;47.30;;;;;;5052774;28;20623;-70
2022/05/03 06:59:09;;;;;;;0.37;0.37;;;26.10;47.90;;;;;;5054294;28;20174;-70
2022/05/03 07:01:35;;;;;;;0.53;0.53;;;25.80;48.20;;;;;;5052673;28;20205;-70
2022/05/03 07:04:01;;;;;;;0.37;0.37;;;25.50;47.90;;;;;;5054294;28;20173;-70
2022/05/03 07:06:27;;;;;;;0.50;0.50;;;25.20;48.20;;;;;;5054233;28;20190;-70
2022/05/03 07:08:53;;;;;;;0.30;0.30;;;25.30;48.40;;;;;;5053863;28;20413;-69
2022/05/03 07:11:18;;;;;;;0.30;0.30;;;25.20;47.10;;;;;;5053956;28;20273;-70
2022/05/03 07:13:44;;;;;;;0.30;0.30;;;25.60;48.70;;;;;;5054044;28;20168;-70
2022/05/03 07:16:10;;;;;;;0.53;0.53;;;26.80;45.00;;;;;;5054193;28;20167;-70
2022/05/03 07:24:05;;;;;;;0.97;0.97;;;29.70;38.70;;;;;;5053772;28;20402;-70
2022/05/03 07:26:31;;;;;;;0.40;0.40;;;29.80;37.90;;;;;;5053881;28;20602;-70
2022/05/03 07:28:57;;;;;;;0.60;0.60;;;30.30;37.10;;;;;;5052616;28;20498;-70
2022/05/03 07:31:23;;;;;;;1.17;1.13;;;30.70;35.30;;;;;;5053437;28;20186;-70
2022/05/03 07:33:49;;;;;;;0.50;0.50;;;31.40;34.40;;;;;;5053623;28;20169;-70
2022/05/03 07:36:17;;;;;;;0.60;0.60;;;31.60;31.80;;;;;;5053596;28;20893;-70
2022/05/03 07:38:43;;;;;;;0.40;0.40;;;31.30;32.20;;;;;;5053623;28;20170;-70
2022/05/03 07:41:10;;;;;;;1.43;1.43;;;29.90;31.90;;;;;;5053398;28;20947;-70
2022/05/03 07:43:36;;;;;;;0.40;0.40;;;28.80;34.40;;;;;;5053606;28;20622;-70
2022/05/03 07:46:01;;;;;;;0.40;0.40;;;27.80;36.00;;;;;;5053560;28;20451;-70
2022/05/03 07:48:27;;;;;;;1.23;0.83;;;26.60;35.80;;;;;;5053892;28;20181;-70
2022/05/03 07:50:53;;;;;;;0.50;0.50;;;25.10;36.60;;;;;;5053305;28;20182;-69
2022/05/03 07:53:19;;;;;;;0.30;0.30;;;24.00;39.20;;;;;;5053409;28;20408;-70
2022/05/03 07:55:46;;;;;;;0.40;0.40;;;23.40;40.40;;;;;;5053554;28;20170;-69
2022/05/03 07:58:12;;;;;;;0.90;0.70;;;23.50;40.30;;;;;;5053544;28;20516;-70
2022/05/03 08:00:37;;;;;;;0.40;0.40;;;23.20;40.50;;;;;;5051796;28;20428;-69
2022/05/03 08:03:03;;;;;;;0.30;0.30;;;22.50;40.90;;;;;;5053561;28;20186;-69
2022/05/03 08:05:29;;;;;;;0.30;0.30;;;22.30;42.20;;;;;;5053615;28;20205;-70
2022/05/03 08:07:54;;;;;;;0.30;0.30;;;22.00;42.40;;;;;;5053418;28;20177;-69
2022/05/03 08:10:20;;;;;;;0.30;0.30;;;21.00;43.30;;;;;;5055581;28;20256;-69
2022/05/03 08:12:50;;;;;;;0.40;0.40;;;20.30;44.60;;;;;;5057290;28;20649;-69
2022/05/03 08:15:20;;;;;;;0.40;0.40;;;19.80;45.00;;;;;;5057468;28;20397;-69
2022/05/03 08:17:47;;;;;;;0.30;0.30;;;19.60;45.20;;;;;;5057476;28;20450;-70
2022/05/03 08:20:14;;;;;;;0.30;0.30;;;19.40;46.10;;;;;;5056965;28;20416;-69
2022/05/03 08:22:41;;;;;;;0.30;0.30;;;19.50;47.40;;;;;;5056777;28;20574;-73
2022/05/03 08:25:07;;;;;;;0.70;0.70;;;19.50;49.00;;;;;;5055888;28;20983;-74
2022/05/03 08:27:36;;;;;;;0.30;0.30;;;19.70;47.70;;;;;;5056785;28;20413;-73
2022/05/03 08:30:02;;;;;;;0.30;0.30;;;19.60;49.20;;;;;;5054729;28;20412;-70
2022/05/03 08:32:28;;;;;;;0.50;0.50;;;19.50;48.90;;;;;;5056491;28;20440;-70
2022/05/03 08:34:53;;;;;;;1.03;1.03;;;19.40;48.30;;;;;;5055139;28;20450;-68
2022/05/03 08:42:48;;;;;;;0.40;0.40;;;19.20;49.90;;;;;;5056931;28;20402;-69
2022/05/03 08:45:13;;;;;;;0.30;0.30;;;19.20;51.10;;;;;;5056918;28;20856;-69
2022/05/03 08:47:41;;;;;;;0.30;0.30;;;19.20;53.00;;;;;;5057046;28;20192;-71
2022/05/03 08:50:08;;;;;;;0.60;0.60;;;19.00;54.80;;;;;;5056046;28;20161;-70
2022/05/03 08:52:57;;;;;;;1.50;1.50;;;18.40;56.30;;;;;;5052603;28;20402;-70
2022/05/03 08:55:23;;;;;;;0.57;0.57;;;18.20;57.40;;;;;;5054338;28;20425;-69
2022/05/03 08:57:49;;;;;;;0.30;0.30;;;18.80;58.30;;;;;;5054461;28;20410;-69
2022/05/03 09:00:16;;;;;;;0.30;0.30;;;19.20;56.40;;;;;;5054195;28;20415;-69
2022/05/03 09:02:42;;;;;;;0.40;0.40;;;18.60;56.70;;;;;;5055441;28;20412;-69
2022/05/03 09:05:10;;;;;;;0.40;0.40;;;17.90;58.20;;;;;;5055771;28;20455;-69
2022/05/03 09:07:37;;;;;;;1.47;1.43;;;17.60;58.90;;;;;;5056317;28;20450;-70
2022/05/03 09:10:36;;;;;;;0.30;0.30;;;17.40;60.00;;;;;;5054318;28;20410;-69
2022/05/03 09:13:23;;;;;;;0.30;0.30;;;17.40;59.80;;;;;;5022899;28;20485;-70
2022/05/03 09:15:51;;;;;;;0.40;0.40;;;17.40;59.50;;;;;;5056839;28;20449;-69
2022/05/03 09:18:26;;;;;;;0.30;0.30;;;17.60;59.50;;;;;;5056225;28;20901;-69
2022/05/03 09:23:49;;;;;;;0.30;0.30;;;17.30;58.10;;;;;;5056493;28;20454;-71
2022/05/03 09:26:24;;;;;;;0.30;0.30;;;17.50;57.30;;;;;;5056556;28;20452;-71
2022/05/03 09:29:11;;;;;;;0.40;0.40;;;17.80;58.80;;;;;;5056068;28;20401;-71
2022/05/03 09:31:47;;;;;;;0.30;0.30;;;18.40;56.60;;;;;;5056161;28;20449;-70
2022/05/03 09:34:25;;;;;;;0.30;0.30;;;18.40;55.00;;;;;;5055891;28;20436;-70
2022/05/03 09:36:52;;;;;;;0.30;0.30;;;18.20;54.80;;;;;;5054588;28;20405;-72
2022/05/03 09:39:29;;;;;;;0.40;0.40;;;17.90;55.80;;;;;;5055921;28;20408;-71
2022/05/03 09:42:06;;;;;;;1.30;1.10;;;18.20;54.80;;;;;;5055874;28;20477;-72
2022/05/03 09:44:36;;;;;;;0.30;0.30;;;18.40;54.00;;;;;;5053256;28;20480;-71
2022/05/03 09:47:11;;;;;;;0.30;0.30;;;18.30;54.10;;;;;;5055504;28;20439;-72
2022/05/03 09:49:39;;;;;;;0.30;0.30;;;18.20;56.50;;;;;;5054281;28;20818;-72
2022/05/03 09:52:06;;;;;;;0.30;0.30;;;18.00;58.00;;;;;;5055279;28;20514;-71
2022/05/03 09:54:46;;;;;;;0.30;0.30;;;17.90;58.80;;;;;;5055238;28;20441;-71
2022/05/03 09:57:22;;;;;;;0.30;0.30;;;17.60;59.70;;;;;;5055420;28;20410;-72
2022/05/03 09:59:50;;;;;;;0.30;0.30;;;17.40;60.70;;;;;;5055399;28;20405;-72
2022/05/03 10:02:24;;;;;;;2.97;0.70;;;16.90;61.40;;;;;;5055245;28;20431;-71
2022/05/03 10:04:51;;;;;;;0.40;0.40;;;16.40;60.20;;;;;;5053861;28;20459;-72
2022/05/03 10:07:19;;;;;;;0.40;0.40;;;16.10;62.00;;;;;;5055222;28;20481;-72
2022/05/03 10:09:46;;;;;;;0.30;0.30;;;15.90;67.00;;;;;;5054971;28;20470;-70
2022/05/03 10:12:13;;;;;;;0.40;0.40;;;15.40;71.40;;;;;;5055227;28;20791;-71
2022/05/03 10:14:40;;;;;;;1.37;1.27;;;14.90;71.20;;;;;;5055280;28;20904;-71
2022/05/03 10:22:45;;;;;;;0.40;0.40;;;13.50;85.70;;;;;;5054908;28;20462;-71
2022/05/03 10:25:10;;;;;;;0.30;0.30;;;12.90;87.50;;;;;;5054869;28;20498;-72
2022/05/03 10:27:56;;;;;;;0.30;0.30;;;12.60;92.70;;;;;;5054936;28;20405;-71
2022/05/03 10:30:23;;;;;;;0.30;0.30;;;12.50;95.60;;;;;;5054712;28;20585;-72
2022/05/03 10:33:24;;;;;;;0.80;0.80;;;12.40;97.30;;;;;;5054045;28;20401;-72
2022/05/03 10:35:50;;;;;;;0.30;0.30;;;12.00;99.20;;;;;;5053437;28;20517;-71
2022/05/03 10:38:43;;;;;;;0.30;0.30;;;12.00;99.90;;;;;;5054730;28;20399;-71
2022/05/03 10:41:09;;;;;;;0.40;0.40;;;12.10;99.60;;;;;;5054395;28;20417;-72
2022/05/03 10:43:36;;;;;;;0.80;0.80;;;12.20;99.70;;;;;;5054719;28;20423;-71
2022/05/03 10:46:09;;;;;;;0.30;0.30;;;12.30;99.90;;;;;;5054557;28;20851;-72
2022/05/03 10:48:36;;;;;;;0.30;0.30;;;12.50;99.90;;;;;;5054485;28;20404;-71
2022/05/03 10:51:04;;;;;;;0.30;0.30;;;12.70;99.90;;;;;;5054104;28;20496;-71
2022/05/03 10:53:32;;;;;;;0.30;0.30;;;13.00;99.90;;;;;;5054324;28;20407;-71
2022/05/03 10:56:18;;;;;;;0.40;0.40;;;13.40;99.20;;;;;;5054468;28;20413;-72
2022/05/03 10:59:05;;;;;;;0.50;0.50;;;14.00;98.70;;;;;;5054468;28;20488;-71
2022/05/03 11:01:31;;;;;;;0.40;0.40;;;14.70;98.40;;;;;;5054103;28;20417;-71
2022/05/03 11:04:17;;;;;;;1.17;0.57;;;15.40;97.30;;;;;;5054087;28;20396;-71
2022/05/03 11:06:44;;;;;;;0.30;0.30;;;16.00;95.40;;;;;;5052551;28;20420;-71
2022/05/03 11:09:10;;;;;;;0.30;0.30;;;16.60;94.60;;;;;;5054275;28;20404;-72
2022/05/03 11:11:39;;;;;;;0.40;0.40;;;17.50;93.70;;;;;;5053805;28;20459;-71
2022/05/03 11:16:43;;;;;;;0.30;0.30;;;19.20;91.80;;;;;;5053839;28;20378;-71
2022/05/03 11:19:14;;;;;;;0.30;0.30;;;19.50;90.00;;;;;;5054173;28;20738;-72
2022/05/03 11:21:41;;;;;;;0.43;0.43;;;19.60;86.20;;;;;;5053452;28;20440;-72
2022/05/03 11:24:24;;;;;;;0.40;0.40;;;19.80;83.40;;;;;;5053866;28;20399;-72
2022/05/03 11:26:52;;;;;;;0.30;0.30;;;19.90;81.70;;;;;;5053937;28;20428;-71
2022/05/03 11:29:19;;;;;;;0.40;0.40;;;20.00;80.40;;;;;;5054107;28;20407;-72
2022/05/03 11:31:49;;;;;;;0.40;0.40;;;19.90;81.60;;;;;;5053454;28;20439;-72
2022/05/03 11:34:15;;;;;;;0.30;0.30;;;20.10;78.10;;;;;;5053680;28;20482;-71
2022/05/03 11:36:42;;;;;;;0.30;0.30;;;20.20;78.00;;;;;;5053728;28;20399;-71
2022/05/03 11:39:09;;;;;;;0.30;0.30;;;20.10;77.80;;;;;;5053707;28;20488;-71
2022/05/03 11:41:37;;;;;;;1.60;0.97;;;20.40;71.10;;;;;;5053278;28;20420;-72
2022/05/03 11:44:03;;;;;;;0.30;0.30;;;20.50;72.10;;;;;;5052551;28;20441;-72
2022/05/03 11:46:29;;;;;;;0.30;0.30;;;20.70;69.50;;;;;;5053391;28;20810;-73
2022/05/03 11:49:01;;;;;;;0.30;0.30;;;21.00;74.90;;;;;;5053534;28;20410;-72
2022/05/03 11:57:10;;;;;;;0.30;0.30;;;20.90;51.50;;;;;;5053896;28;20446;-72
2022/05/03 11:59:40;;;;;;;0.30;0.30;;;20.80;59.90;;;;;;5053597;28;20454;-71
2022/05/03 12:02:19;;;;;;;0.30;0.30;;;21.00;53.10;;;;;;5053680;28;20479;-72
2022/05/03 12:05:27;;;;;;;0.30;0.30;;;21.00;52.10;;;;;;5053398;28;20458;-72
2022/05/03 12:07:53;;;;;;;0.30;0.30;;;20.50;51.00;;;;;;5052932;28;20413;-71
2022/05/03 12:10:25;;;;;;;0.30;0.30;;;20.30;51.10;;;;;;5053049;28;20404;-72
2022/05/03 12:13:14;;;;;;;0.30;0.30;;;20.40;52.00;;;;;;5053146;28;20404;-72
2022/05/03 12:15:46;;;;;;;0.30;0.30;;;20.30;51.10;;;;;;5053150;28;20796;-72
2022/05/03 12:18:23;;;;;;;0.30;0.30;;;20.30;52.60;;;;;;5053446;28;20519;-72
2022/05/03 12:20:51;;;;;;;0.30;0.30;;;20.50;55.70;;;;;;5051585;28;20462;-72
2022/05/03 12:23:39;;;;;;;0.60;0.60;;;20.60;52.60;;;;;;5050880;28;20645;-71
2022/05/03 12:26:19;;;;;;;0.30;0.30;;;20.10;54.50;;;;;;5052220;28;21006;-70
2022/05/03 12:28:48;;;;;;;0.30;0.30;;;19.70;50.40;;;;;;5053350;28;20450;-70
2022/05/03 12:31:16;;;;;;;0.30;0.30;;;19.80;52.20;;;;;;5050932;28;20422;-71
2022/05/03 12:33:44;;;;;;;0.40;0.40;;;20.00;56.40;;;;;;5052488;28;20412;-71
2022/05/03 12:36:10;;;;;;;0.50;0.50;;;19.70;57.20;;;;;;5053259;28;20407;-71
2022/05/03 12:38:49;;;;;;;0.50;0.40;;;19.70;60.90;;;;;;5051745;28;20773;-71
2022/05/03 12:41:26;;;;;;;0.40;0.40;;;19.90;59.90;;;;;;5052690;28;21008;-70
2022/05/03 12:44:07;;;;;;;0.30;0.30;;;19.80;58.90;;;;;;5052583;28;20407;-71
2022/05/03 12:46:37;;;;;;;0.30;0.30;;;19.70;61.30;;;;;;5051184;28;20447;-69
2022/05/03 12:49:06;;;;;;;0.30;0.30;;;19.60;60.80;;;;;;5050728;28;20496;-71
2022/05/03 12:51:32;;;;;;;0.30;0.30;;;20.00;60.60;;;;;;5051661;28;20528;-70
2022/05/03 12:54:04;;;;;;;0.30;0.30;;;20.20;65.70;;;;;;5051314;28;20894;-69
2022/05/03 12:59:15;;;;;;;0.30;0.30;;;20.40;57.60;;;;;;5056792;28;20907;-71
2022/05/03 13:01:42;;;;;;;0.73;0.73;;;20.20;57.30;;;;;;5056639;28;20440;-71
2022/05/03 13:04:09;;;;;;;0.30;0.30;;;20.00;56.80;;;;;;5056877;28;20196;-70
2022/05/03 13:06:35;;;;;;;0.40;0.40;;;20.00;57.40;;;;;;5056888;28;20455;-71
2022/05/03 13:09:03;;;;;;;0.30;0.30;;;19.80;57.30;;;;;;5057005;28;20430;-71
2022/05/03 13:11:30;;;;;;;0.43;0.43;;;19.60;55.60;;;;;;5056302;28;20435;-70
2022/05/03 13:13:55;;;;;;;0.30;0.30;;;19.60;58.00;;;;;;5056580;28;20400;-70
2022/05/03 13:16:21;;;;;;;0.30;0.30;;;19.30;56.60;;;;;;5056560;28;20811;-69
2022/05/03 13:18:47;;;;;;;0.30;0.30;;;19.20;55.60;;;;;;5055378;28;20176;-69
2022/05/03 13:21:12;;;;;;;2.33;0.70;;;19.30;57.00;;;;;;5055766;28;20215;-71
2022/05/03 13:23:38;;;;;;;0.30;0.30;;;19.20;54.00;;;;;;5055487;28;20203;-69
2022/05/03 13:26:04;;;;;;;0.30;0.30;;;18.80;53.50;;;;;;5056251;28;20237;-69
2022/05/03 13:28:29;;;;;;;0.30;0.30;;;18.40;57.00;;;;;;5056342;28;20559;-71
2022/05/03 13:30:56;;;;;;;0.30;0.30;;;18.40;56.40;;;;;;5055761;28;20190;-70
2022/05/03 13:33:21;;;;;;;0.30;0.30;;;18.40;55.00;;;;;;5056387;28;20181;-71
2022/05/03 13:41:17;;;;;;;0.30;0.30;;;18.50;54.60;;;;;;5056028;28;20421;-70
2022/05/03 13:43:44;;;;;;;0.30;0.30;;;18.60;54.10;;;;;;5056195;28;20436;-70
2022/05/03 13:46:09;;;;;;;0.30;0.30;;;18.60;53.40;;;;;;5054904;28;20453;-70
2022/05/03 13:48:35;;;;;;;0.30;0.30;;;18.90;53.50;;;;;;5056261;28;20859;-71
2022/05/03 13:51:06;;;;;;;0.30;0.30;;;19.10;53.00;;;;;;5055534;28;20641;-70
2022/05/03 13:53:32;;;;;;;0.30;0.30;;;19.40;52.80;;;;;;5055886;28;20168;-70
2022/05/03 13:55:58;;;;;;;0.30;0.30;;;19.50;51.10;;;;;;5055850;28;20427;-69
2022/05/03 13:58:24;;;;;;;0.30;0.30;;;19.50;51.70;;;;;;5055926;28;20404;-71